sensor_id;sensor_type;location;lat;lon;timestamp;temperature;humidity
11399;DHT22;5755;48.116;11.608;2022-08-21T00:00:09;16.60;99.90
11399;DHT22;5755;48.116;11.608;2022-08-21T00:02:36;16.60;99.90
11399;DHT22;5755;48.116;11.608;2022-08-21T00:05:04;16.60;99.90
11399;DHT22;5755;48.116;11.608;2022-08-21T00:07:31;16.60;99.90
11399;DHT22;5755;48.116;11.608;2022-08-21T00:09:59;16.50;99.90
11399;DHT22;5755;48.116;11.608;2022-08-21T00:12:26;16.50;99.90
11399;DHT22;5755;48.116;11.608;2022-08-21T00:14:53;16.40;99.90
11399;DHT22;5755;48.116;11.608;2022-08-21T00:17:20;16.40;99.90
11399;DHT22;5755;48.116;11.608;2022-08-21T00:19:53;16.40;99.90
11399;DHT22;5755;48.116;11.608;2022-08-21T00:22:20;16.30;99.90
11399;DHT22;5755;48.116;11.608;2022-08-21T00:24:50;16.30;99.90
11399;DHT22;5755;48.116;11.608;2022-08-21T00:27:18;16.20;99.90
11399;DHT22;5755;48.116;11.608;2022-08-21T00:29:45;16.20;99.90
11399;DHT22;5755;48.116;11.608;2022-08-21T00:32:12;16.20;99.90
11399;DHT22;5755;48.116;11.608;2022-08-21T00:34:39;16.10;99.90
11399;DHT22;5755;48.116;11.608;2022-08-21T00:37:06;16.10;99.90
11399;DHT22;5755;48.116;11.608;2022-08-21T00:39:33;16.00;99.90
11399;DHT22;5755;48.116;11.608;2022-08-21T00:42:00;16.00;99.90
11399;DHT22;5755;48.116;11.608;2022-08-21T00:44:28;16.00;99.90
11399;DHT22;5755;48.116;11.608;2022-08-21T00:46:56;16.10;99.90
11399;DHT22;5755;48.116;11.608;2022-08-21T00:49:23;16.10;99.90
11399;DHT22;5755;48.116;11.608;2022-08-21T00:51:54;16.10;99.90
11399;DHT22;5755;48.116;11.608;2022-08-21T00:54:24;16.10;99.90
11399;DHT22;5755;48.116;11.608;2022-08-21T00:56:59;16.10;99.90
11399;DHT22;5755;48.116;11.608;2022-08-21T00:59:32;16.00;99.90
11399;DHT22;5755;48.116;11.608;2022-08-21T01:02:01;16.00;99.90
11399;DHT22;5755;48.116;11.608;2022-08-21T01:04:29;16.00;99.90
11399;DHT22;5755;48.116;11.608;2022-08-21T01:06:56;15.90;99.90
11399;DHT22;5755;48.116;11.608;2022-08-21T01:09:23;15.90;99.90
11399;DHT22;5755;48.116;11.608;2022-08-21T01:11:50;15.90;99.90
11399;DHT22;5755;48.116;11.608;2022-08-21T01:14:17;15.80;99.90
11399;DHT22;5755;48.116;11.608;2022-08-21T01:16:50;15.80;99.90
11399;DHT22;5755;48.116;11.608;2022-08-21T01:19:20;15.80;99.90
11399;DHT22;5755;48.116;11.608;2022-08-21T01:21:49;15.80;99.90
11399;DHT22;5755;48.116;11.608;2022-08-21T01:24:16;15.80;99.90
11399;DHT22;5755;48.116;11.608;2022-08-21T01:26:43;15.70;99.90
11399;DHT22;5755;48.116;11.608;2022-08-21T01:29:14;15.70;99.90
11399;DHT22;5755;48.116;11.608;2022-08-21T01:31:43;15.70;99.90
11399;DHT22;5755;48.116;11.608;2022-08-21T01:34:12;15.60;99.90
11399;DHT22;5755;48.116;11.608;2022-08-21T01:36:39;15.60;99.90
11399;DHT22;5755;48.116;11.608;2022-08-21T01:39:07;15.60;99.90
11399;DHT22;5755;48.116;11.608;2022-08-21T01:41:34;15.60;99.90
11399;DHT22;5755;48.116;11.608;2022-08-21T01:44:01;15.60;99.90
11399;DHT22;5755;48.116;11.608;2022-08-21T01:46:28;15.60;99.90
11399;DHT22;5755;48.116;11.608;2022-08-21T01:48:55;15.50;99.90
11399;DHT22;5755;48.116;11.608;2022-08-21T01:51:22;15.50;99.90
11399;DHT22;5755;48.116;11.608;2022-08-21T01:53:49;15.50;99.90
11399;DHT22;5755;48.116;11.608;2022-08-21T01:56:18;15.50;99.90
11399;DHT22;5755;48.116;11.608;2022-08-21T01:58:46;15.50;99.90
11399;DHT22;5755;48.116;11.608;2022-08-21T02:01:13;15.50;99.90
11399;DHT22;5755;48.116;11.608;2022-08-21T02:03:40;15.50;99.90
11399;DHT22;5755;48.116;11.608;2022-08-21T02:06:12;15.40;99.90
11399;DHT22;5755;48.116;11.608;2022-08-21T02:08:40;15.40;99.90
11399;DHT22;5755;48.116;11.608;2022-08-21T02:11:07;15.40;99.90
11399;DHT22;5755;48.116;11.608;2022-08-21T02:13:35;15.40;99.90
11399;DHT22;5755;48.116;11.608;2022-08-21T02:16:03;15.40;99.90
11399;DHT22;5755;48.116;11.608;2022-08-21T02:18:30;15.40;99.90
11399;DHT22;5755;48.116;11.608;2022-08-21T02:20:56;15.40;99.90
11399;DHT22;5755;48.116;11.608;2022-08-21T02:23:24;15.40;99.90
11399;DHT22;5755;48.116;11.608;2022-08-21T02:25:51;15.30;99.90
11399;DHT22;5755;48.116;11.608;2022-08-21T02:28:18;15.30;99.90
11399;DHT22;5755;48.116;11.608;2022-08-21T02:30:47;15.30;99.90
11399;DHT22;5755;48.116;11.608;2022-08-21T02:33:15;15.30;99.90
11399;DHT22;5755;48.116;11.608;2022-08-21T02:35:43;15.20;99.90
11399;DHT22;5755;48.116;11.608;2022-08-21T02:38:12;15.20;99.90
11399;DHT22;5755;48.116;11.608;2022-08-21T02:40:42;15.20;99.90
11399;DHT22;5755;48.116;11.608;2022-08-21T02:43:09;15.20;99.90
11399;DHT22;5755;48.116;11.608;2022-08-21T02:45:37;15.20;99.90
11399;DHT22;5755;48.116;11.608;2022-08-21T02:48:08;15.20;99.90
11399;DHT22;5755;48.116;11.608;2022-08-21T02:50:37;15.10;99.90
11399;DHT22;5755;48.116;11.608;2022-08-21T02:53:05;15.10;99.90
11399;DHT22;5755;48.116;11.608;2022-08-21T02:55:34;15.10;99.90
11399;DHT22;5755;48.116;11.608;2022-08-21T02:58:02;15.10;99.90
11399;DHT22;5755;48.116;11.608;2022-08-21T03:00:30;15.10;99.90
11399;DHT22;5755;48.116;11.608;2022-08-21T03:02:58;15.10;99.90
11399;DHT22;5755;48.116;11.608;2022-08-21T03:05:29;15.10;99.90
11399;DHT22;5755;48.116;11.608;2022-08-21T03:07:57;15.10;99.90
11399;DHT22;5755;48.116;11.608;2022-08-21T03:10:25;15.10;99.90
11399;DHT22;5755;48.116;11.608;2022-08-21T03:12:52;15.00;99.90
11399;DHT22;5755;48.116;11.608;2022-08-21T03:15:21;15.00;99.90
11399;DHT22;5755;48.116;11.608;2022-08-21T03:17:49;15.00;99.90
11399;DHT22;5755;48.116;11.608;2022-08-21T03:20:21;15.00;99.90
11399;DHT22;5755;48.116;11.608;2022-08-21T03:22:51;15.00;99.90
11399;DHT22;5755;48.116;11.608;2022-08-21T03:25:18;14.90;99.90
11399;DHT22;5755;48.116;11.608;2022-08-21T03:27:46;14.90;99.90
11399;DHT22;5755;48.116;11.608;2022-08-21T03:30:19;14.90;99.90
11399;DHT22;5755;48.116;11.608;2022-08-21T03:32:47;14.90;99.90
11399;DHT22;5755;48.116;11.608;2022-08-21T03:35:14;14.80;99.90
11399;DHT22;5755;48.116;11.608;2022-08-21T03:37:41;14.80;99.90
11399;DHT22;5755;48.116;11.608;2022-08-21T03:40:11;14.90;99.90
11399;DHT22;5755;48.116;11.608;2022-08-21T03:42:38;14.80;99.90
11399;DHT22;5755;48.116;11.608;2022-08-21T03:45:07;14.80;99.90
11399;DHT22;5755;48.116;11.608;2022-08-21T03:47:34;14.80;99.90
11399;DHT22;5755;48.116;11.608;2022-08-21T03:50:02;14.80;99.90
11399;DHT22;5755;48.116;11.608;2022-08-21T03:52:29;14.80;99.90
11399;DHT22;5755;48.116;11.608;2022-08-21T03:54:56;14.80;99.90
11399;DHT22;5755;48.116;11.608;2022-08-21T03:57:24;14.80;99.90
11399;DHT22;5755;48.116;11.608;2022-08-21T03:59:51;14.80;99.90
11399;DHT22;5755;48.116;11.608;2022-08-21T04:02:20;14.70;99.90
11399;DHT22;5755;48.116;11.608;2022-08-21T04:04:47;14.70;99.90
11399;DHT22;5755;48.116;11.608;2022-08-21T04:07:14;14.70;99.90
11399;DHT22;5755;48.116;11.608;2022-08-21T04:09:41;14.70;99.90
11399;DHT22;5755;48.116;11.608;2022-08-21T04:12:08;14.70;99.90
11399;DHT22;5755;48.116;11.608;2022-08-21T04:14:43;14.70;99.90
11399;DHT22;5755;48.116;11.608;2022-08-21T04:17:10;14.70;99.90
11399;DHT22;5755;48.116;11.608;2022-08-21T04:19:36;14.70;99.90
11399;DHT22;5755;48.116;11.608;2022-08-21T04:22:03;14.70;99.90
11399;DHT22;5755;48.116;11.608;2022-08-21T04:24:30;14.70;99.90
11399;DHT22;5755;48.116;11.608;2022-08-21T04:26:57;14.70;99.90
11399;DHT22;5755;48.116;11.608;2022-08-21T04:29:24;14.70;99.90
11399;DHT22;5755;48.116;11.608;2022-08-21T04:31:52;14.70;99.90
11399;DHT22;5755;48.116;11.608;2022-08-21T04:34:20;14.70;99.90
11399;DHT22;5755;48.116;11.608;2022-08-21T04:36:47;14.70;99.90
11399;DHT22;5755;48.116;11.608;2022-08-21T04:39:14;14.60;99.90
11399;DHT22;5755;48.116;11.608;2022-08-21T04:41:41;14.60;99.90
11399;DHT22;5755;48.116;11.608;2022-08-21T04:44:07;14.60;99.90
11399;DHT22;5755;48.116;11.608;2022-08-21T04:46:35;14.60;99.90
11399;DHT22;5755;48.116;11.608;2022-08-21T04:49:03;14.60;99.90
11399;DHT22;5755;48.116;11.608;2022-08-21T04:51:32;14.60;99.90
11399;DHT22;5755;48.116;11.608;2022-08-21T04:54:02;14.60;99.90
11399;DHT22;5755;48.116;11.608;2022-08-21T04:56:36;14.60;99.90
11399;DHT22;5755;48.116;11.608;2022-08-21T04:59:07;14.60;99.90
11399;DHT22;5755;48.116;11.608;2022-08-21T05:01:41;14.60;99.90
11399;DHT22;5755;48.116;11.608;2022-08-21T05:04:13;14.60;99.90
11399;DHT22;5755;48.116;11.608;2022-08-21T05:06:42;14.60;99.90
11399;DHT22;5755;48.116;11.608;2022-08-21T05:09:14;14.70;99.90
11399;DHT22;5755;48.116;11.608;2022-08-21T05:11:41;14.70;99.90
11399;DHT22;5755;48.116;11.608;2022-08-21T05:14:08;14.80;99.90
11399;DHT22;5755;48.116;11.608;2022-08-21T05:16:35;14.80;99.90
11399;DHT22;5755;48.116;11.608;2022-08-21T05:19:06;14.90;99.90
11399;DHT22;5755;48.116;11.608;2022-08-21T05:21:36;14.90;99.90
11399;DHT22;5755;48.116;11.608;2022-08-21T05:24:04;14.90;99.90
11399;DHT22;5755;48.116;11.608;2022-08-21T05:26:30;15.00;99.90
11399;DHT22;5755;48.116;11.608;2022-08-21T05:28:57;15.10;99.90
11399;DHT22;5755;48.116;11.608;2022-08-21T05:31:27;15.20;99.90
11399;DHT22;5755;48.116;11.608;2022-08-21T05:33:54;15.20;99.90
11399;DHT22;5755;48.116;11.608;2022-08-21T05:36:23;15.30;99.90
11399;DHT22;5755;48.116;11.608;2022-08-21T05:38:51;15.30;99.90
11399;DHT22;5755;48.116;11.608;2022-08-21T05:41:18;15.40;99.90
11399;DHT22;5755;48.116;11.608;2022-08-21T05:43:47;15.50;99.90
11399;DHT22;5755;48.116;11.608;2022-08-21T05:46:15;15.60;99.90
11399;DHT22;5755;48.116;11.608;2022-08-21T05:48:42;15.60;99.90
11399;DHT22;5755;48.116;11.608;2022-08-21T05:51:11;15.70;99.90
11399;DHT22;5755;48.116;11.608;2022-08-21T05:53:38;15.70;99.90
11399;DHT22;5755;48.116;11.608;2022-08-21T05:56:06;15.70;99.90
11399;DHT22;5755;48.116;11.608;2022-08-21T05:58:33;15.80;99.90
11399;DHT22;5755;48.116;11.608;2022-08-21T06:01:02;15.80;99.90
11399;DHT22;5755;48.116;11.608;2022-08-21T06:03:31;15.90;99.90
11399;DHT22;5755;48.116;11.608;2022-08-21T06:05:59;15.90;99.90
11399;DHT22;5755;48.116;11.608;2022-08-21T06:08:27;15.90;99.90
11399;DHT22;5755;48.116;11.608;2022-08-21T06:10:56;16.00;99.90
11399;DHT22;5755;48.116;11.608;2022-08-21T06:13:26;16.00;99.90
11399;DHT22;5755;48.116;11.608;2022-08-21T06:16:02;16.00;99.90
11399;DHT22;5755;48.116;11.608;2022-08-21T06:18:29;16.00;99.90
11399;DHT22;5755;48.116;11.608;2022-08-21T06:20:56;16.10;99.90
11399;DHT22;5755;48.116;11.608;2022-08-21T06:23:23;16.20;99.90
11399;DHT22;5755;48.116;11.608;2022-08-21T06:25:50;16.30;99.90
11399;DHT22;5755;48.116;11.608;2022-08-21T06:28:17;16.30;99.90
11399;DHT22;5755;48.116;11.608;2022-08-21T06:30:49;16.40;99.90
11399;DHT22;5755;48.116;11.608;2022-08-21T06:33:16;16.50;99.90
11399;DHT22;5755;48.116;11.608;2022-08-21T06:35:47;16.60;99.90
11399;DHT22;5755;48.116;11.608;2022-08-21T06:38:14;16.60;99.90
11399;DHT22;5755;48.116;11.608;2022-08-21T06:40:41;16.70;99.90
11399;DHT22;5755;48.116;11.608;2022-08-21T06:43:11;16.70;99.90
11399;DHT22;5755;48.116;11.608;2022-08-21T06:45:38;16.80;99.90
11399;DHT22;5755;48.116;11.608;2022-08-21T06:48:07;16.90;99.90
11399;DHT22;5755;48.116;11.608;2022-08-21T06:50:34;17.00;99.90
11399;DHT22;5755;48.116;11.608;2022-08-21T06:53:05;17.10;99.90
11399;DHT22;5755;48.116;11.608;2022-08-21T06:55:32;17.10;99.90
11399;DHT22;5755;48.116;11.608;2022-08-21T06:57:59;17.20;99.90
11399;DHT22;5755;48.116;11.608;2022-08-21T07:00:27;17.30;99.90
11399;DHT22;5755;48.116;11.608;2022-08-21T07:02:53;17.30;99.90
11399;DHT22;5755;48.116;11.608;2022-08-21T07:05:22;17.50;99.60
11399;DHT22;5755;48.116;11.608;2022-08-21T07:07:51;17.50;99.60
11399;DHT22;5755;48.116;11.608;2022-08-21T07:10:17;17.50;99.50
11399;DHT22;5755;48.116;11.608;2022-08-21T07:12:47;17.60;99.00
11399;DHT22;5755;48.116;11.608;2022-08-21T07:15:14;17.70;98.60
11399;DHT22;5755;48.116;11.608;2022-08-21T07:17:40;17.70;98.80
11399;DHT22;5755;48.116;11.608;2022-08-21T07:20:08;17.80;98.50
11399;DHT22;5755;48.116;11.608;2022-08-21T07:22:38;17.90;97.50
11399;DHT22;5755;48.116;11.608;2022-08-21T07:25:05;18.00;97.60
11399;DHT22;5755;48.116;11.608;2022-08-21T07:27:32;18.00;96.20
11399;DHT22;5755;48.116;11.608;2022-08-21T07:29:59;18.10;96.90
11399;DHT22;5755;48.116;11.608;2022-08-21T07:32:26;18.20;95.40
11399;DHT22;5755;48.116;11.608;2022-08-21T07:34:53;18.20;95.50
11399;DHT22;5755;48.116;11.608;2022-08-21T07:37:20;18.30;96.30
11399;DHT22;5755;48.116;11.608;2022-08-21T07:39:48;18.40;95.20
11399;DHT22;5755;48.116;11.608;2022-08-21T07:42:16;18.50;94.90
11399;DHT22;5755;48.116;11.608;2022-08-21T07:44:43;18.60;94.90
11399;DHT22;5755;48.116;11.608;2022-08-21T07:47:10;18.60;95.30
11399;DHT22;5755;48.116;11.608;2022-08-21T07:49:37;18.70;95.00
11399;DHT22;5755;48.116;11.608;2022-08-21T07:52:05;18.80;95.20
11399;DHT22;5755;48.116;11.608;2022-08-21T07:54:32;18.90;93.00
11399;DHT22;5755;48.116;11.608;2022-08-21T07:57:01;19.00;93.10
11399;DHT22;5755;48.116;11.608;2022-08-21T07:59:28;19.00;93.00
11399;DHT22;5755;48.116;11.608;2022-08-21T08:01:55;19.10;93.50
11399;DHT22;5755;48.116;11.608;2022-08-21T08:04:22;19.20;92.90
11399;DHT22;5755;48.116;11.608;2022-08-21T08:06:49;19.30;92.80
11399;DHT22;5755;48.116;11.608;2022-08-21T08:09:16;19.30;91.70
11399;DHT22;5755;48.116;11.608;2022-08-21T08:11:43;19.30;91.80
11399;DHT22;5755;48.116;11.608;2022-08-21T08:14:13;19.40;91.00
11399;DHT22;5755;48.116;11.608;2022-08-21T08:16:41;19.40;91.30
11399;DHT22;5755;48.116;11.608;2022-08-21T08:19:11;19.50;91.00
11399;DHT22;5755;48.116;11.608;2022-08-21T08:21:38;19.60;89.00
11399;DHT22;5755;48.116;11.608;2022-08-21T08:24:06;19.70;86.00
11399;DHT22;5755;48.116;11.608;2022-08-21T08:26:33;19.80;86.30
11399;DHT22;5755;48.116;11.608;2022-08-21T08:28:59;19.90;86.00
11399;DHT22;5755;48.116;11.608;2022-08-21T08:31:28;19.90;82.80
11399;DHT22;5755;48.116;11.608;2022-08-21T08:33:54;20.10;80.90
11399;DHT22;5755;48.116;11.608;2022-08-21T08:36:32;20.10;82.90
11399;DHT22;5755;48.116;11.608;2022-08-21T08:38:59;20.30;82.70
11399;DHT22;5755;48.116;11.608;2022-08-21T08:41:27;20.40;81.10
11399;DHT22;5755;48.116;11.608;2022-08-21T08:44:02;20.50;82.10
11399;DHT22;5755;48.116;11.608;2022-08-21T08:46:34;20.60;83.60
11399;DHT22;5755;48.116;11.608;2022-08-21T08:49:08;20.70;81.30
11399;DHT22;5755;48.116;11.608;2022-08-21T08:51:40;20.80;78.90
11399;DHT22;5755;48.116;11.608;2022-08-21T08:54:14;20.90;79.10
11399;DHT22;5755;48.116;11.608;2022-08-21T08:56:48;21.00;77.20
11399;DHT22;5755;48.116;11.608;2022-08-21T08:59:27;21.20;75.30
11399;DHT22;5755;48.116;11.608;2022-08-21T09:01:57;21.40;72.70
11399;DHT22;5755;48.116;11.608;2022-08-21T09:04:26;21.50;71.70
11399;DHT22;5755;48.116;11.608;2022-08-21T09:07:12;21.70;66.90
11399;DHT22;5755;48.116;11.608;2022-08-21T09:09:55;21.80;62.00
11399;DHT22;5755;48.116;11.608;2022-08-21T09:12:33;22.40;62.10
11399;DHT22;5755;48.116;11.608;2022-08-21T09:15:09;23.80;53.10
11399;DHT22;5755;48.116;11.608;2022-08-21T09:18:00;25.40;43.10
11399;DHT22;5755;48.116;11.608;2022-08-21T09:20:33;26.80;33.80
11399;DHT22;5755;48.116;11.608;2022-08-21T09:26:00;28.80;24.20
11399;DHT22;5755;48.116;11.608;2022-08-21T09:28:31;29.30;21.20
11399;DHT22;5755;48.116;11.608;2022-08-21T09:30:59;29.20;19.10
11399;DHT22;5755;48.116;11.608;2022-08-21T09:33:29;30.20;18.40
11399;DHT22;5755;48.116;11.608;2022-08-21T09:35:56;31.00;17.10
11399;DHT22;5755;48.116;11.608;2022-08-21T09:38:26;31.70;17.50
11399;DHT22;5755;48.116;11.608;2022-08-21T09:40:58;32.50;14.80
11399;DHT22;5755;48.116;11.608;2022-08-21T09:43:26;32.80;13.80
11399;DHT22;5755;48.116;11.608;2022-08-21T09:46:04;32.90;13.30
11399;DHT22;5755;48.116;11.608;2022-08-21T09:48:41;32.70;12.20
11399;DHT22;5755;48.116;11.608;2022-08-21T09:51:10;30.20;15.40
11399;DHT22;5755;48.116;11.608;2022-08-21T09:53:42;29.00;19.40
11399;DHT22;5755;48.116;11.608;2022-08-21T09:56:26;28.30;19.90
11399;DHT22;5755;48.116;11.608;2022-08-21T09:59:20;27.60;23.20
11399;DHT22;5755;48.116;11.608;2022-08-21T10:01:50;26.50;23.40
11399;DHT22;5755;48.116;11.608;2022-08-21T10:04:22;26.50;23.80
11399;DHT22;5755;48.116;11.608;2022-08-21T10:06:49;26.60;28.00
11399;DHT22;5755;48.116;11.608;2022-08-21T10:09:18;27.20;26.50
11399;DHT22;5755;48.116;11.608;2022-08-21T10:11:52;28.20;22.50
11399;DHT22;5755;48.116;11.608;2022-08-21T10:14:34;28.70;22.90
11399;DHT22;5755;48.116;11.608;2022-08-21T10:17:14;29.20;21.90
11399;DHT22;5755;48.116;11.608;2022-08-21T10:19:50;29.10;19.60
11399;DHT22;5755;48.116;11.608;2022-08-21T10:22:29;28.60;19.90
11399;DHT22;5755;48.116;11.608;2022-08-21T10:25:06;27.80;22.60
11399;DHT22;5755;48.116;11.608;2022-08-21T10:27:43;26.70;25.20
11399;DHT22;5755;48.116;11.608;2022-08-21T10:30:13;25.90;27.60
11399;DHT22;5755;48.116;11.608;2022-08-21T10:32:56;25.50;30.20
11399;DHT22;5755;48.116;11.608;2022-08-21T10:35:28;25.10;36.30
11399;DHT22;5755;48.116;11.608;2022-08-21T10:41:04;25.90;30.40
11399;DHT22;5755;48.116;11.608;2022-08-21T10:43:52;26.40;29.90
11399;DHT22;5755;48.116;11.608;2022-08-21T10:49:18;25.60;29.90
11399;DHT22;5755;48.116;11.608;2022-08-21T10:51:56;24.90;35.10
11399;DHT22;5755;48.116;11.608;2022-08-21T10:54:37;24.10;38.20
11399;DHT22;5755;48.116;11.608;2022-08-21T10:57:11;23.50;43.20
11399;DHT22;5755;48.116;11.608;2022-08-21T10:59:44;23.40;45.90
11399;DHT22;5755;48.116;11.608;2022-08-21T11:02:19;23.30;47.80
11399;DHT22;5755;48.116;11.608;2022-08-21T11:04:53;23.60;47.70
11399;DHT22;5755;48.116;11.608;2022-08-21T11:07:26;24.80;45.00
11399;DHT22;5755;48.116;11.608;2022-08-21T11:09:57;25.50;36.20
11399;DHT22;5755;48.116;11.608;2022-08-21T11:12:34;25.30;35.40
11399;DHT22;5755;48.116;11.608;2022-08-21T11:15:15;25.00;36.20
11399;DHT22;5755;48.116;11.608;2022-08-21T11:17:49;24.50;38.60
11399;DHT22;5755;48.116;11.608;2022-08-21T11:20:28;24.30;38.30
11399;DHT22;5755;48.116;11.608;2022-08-21T11:23:02;24.20;47.60
11399;DHT22;5755;48.116;11.608;2022-08-21T11:25:34;24.00;42.20
11399;DHT22;5755;48.116;11.608;2022-08-21T11:28:05;23.90;36.50
11399;DHT22;5755;48.116;11.608;2022-08-21T11:30:43;24.20;35.60
11399;DHT22;5755;48.116;11.608;2022-08-21T11:33:26;24.30;35.70
11399;DHT22;5755;48.116;11.608;2022-08-21T11:35:59;24.40;35.80
11399;DHT22;5755;48.116;11.608;2022-08-21T11:38:35;24.40;35.80
11399;DHT22;5755;48.116;11.608;2022-08-21T11:41:19;24.30;38.70
11399;DHT22;5755;48.116;11.608;2022-08-21T11:43:53;24.10;35.50
11399;DHT22;5755;48.116;11.608;2022-08-21T11:46:28;24.00;40.80
11399;DHT22;5755;48.116;11.608;2022-08-21T11:49:10;24.30;37.10
11399;DHT22;5755;48.116;11.608;2022-08-21T11:51:45;24.50;39.20
11399;DHT22;5755;48.116;11.608;2022-08-21T11:54:23;24.70;36.00
11399;DHT22;5755;48.116;11.608;2022-08-21T11:56:57;24.90;38.50
11399;DHT22;5755;48.116;11.608;2022-08-21T11:59:35;24.70;38.60
11399;DHT22;5755;48.116;11.608;2022-08-21T12:02:11;24.50;42.80
11399;DHT22;5755;48.116;11.608;2022-08-21T12:04:44;24.70;35.40
11399;DHT22;5755;48.116;11.608;2022-08-21T12:07:14;24.80;33.10
11399;DHT22;5755;48.116;11.608;2022-08-21T12:09:52;25.00;31.10
11399;DHT22;5755;48.116;11.608;2022-08-21T12:12:24;24.70;28.90
11399;DHT22;5755;48.116;11.608;2022-08-21T12:15:06;24.70;29.20
11399;DHT22;5755;48.116;11.608;2022-08-21T12:17:38;24.60;29.00
11399;DHT22;5755;48.116;11.608;2022-08-21T12:20:16;24.60;28.30
11399;DHT22;5755;48.116;11.608;2022-08-21T12:22:49;24.50;30.60
11399;DHT22;5755;48.116;11.608;2022-08-21T12:25:38;24.40;28.00
11399;DHT22;5755;48.116;11.608;2022-08-21T12:28:08;24.10;28.80
11399;DHT22;5755;48.116;11.608;2022-08-21T12:30:44;24.00;27.90
11399;DHT22;5755;48.116;11.608;2022-08-21T12:33:24;23.70;27.10
11399;DHT22;5755;48.116;11.608;2022-08-21T12:36:02;23.60;28.30
11399;DHT22;5755;48.116;11.608;2022-08-21T12:38:33;23.60;27.40
11399;DHT22;5755;48.116;11.608;2022-08-21T12:41:12;23.90;24.10
11399;DHT22;5755;48.116;11.608;2022-08-21T12:43:44;24.30;20.60
11399;DHT22;5755;48.116;11.608;2022-08-21T12:46:17;24.80;21.00
11399;DHT22;5755;48.116;11.608;2022-08-21T12:48:48;25.20;19.90
11399;DHT22;5755;48.116;11.608;2022-08-21T12:51:23;25.60;20.80
11399;DHT22;5755;48.116;11.608;2022-08-21T12:53:52;26.10;20.00
11399;DHT22;5755;48.116;11.608;2022-08-21T12:56:23;26.00;17.50
11399;DHT22;5755;48.116;11.608;2022-08-21T12:58:56;25.90;18.60
11399;DHT22;5755;48.116;11.608;2022-08-21T13:01:39;25.70;18.00
11399;DHT22;5755;48.116;11.608;2022-08-21T13:04:13;26.00;19.80
11399;DHT22;5755;48.116;11.608;2022-08-21T13:06:45;26.30;17.60
11399;DHT22;5755;48.116;11.608;2022-08-21T13:09:20;26.60;20.20
11399;DHT22;5755;48.116;11.608;2022-08-21T13:11:52;26.60;20.60
11399;DHT22;5755;48.116;11.608;2022-08-21T13:14:25;26.60;20.90
11399;DHT22;5755;48.116;11.608;2022-08-21T13:16:54;26.30;20.80
11399;DHT22;5755;48.116;11.608;2022-08-21T13:19:22;26.00;21.90
11399;DHT22;5755;48.116;11.608;2022-08-21T13:21:50;25.80;23.90
11399;DHT22;5755;48.116;11.608;2022-08-21T13:24:21;25.30;22.50
11399;DHT22;5755;48.116;11.608;2022-08-21T13:26:48;24.80;23.10
11399;DHT22;5755;48.116;11.608;2022-08-21T13:29:18;24.40;24.70
11399;DHT22;5755;48.116;11.608;2022-08-21T13:31:48;24.10;25.70
11399;DHT22;5755;48.116;11.608;2022-08-21T13:34:16;23.80;26.90
11399;DHT22;5755;48.116;11.608;2022-08-21T13:36:57;23.70;27.00
11399;DHT22;5755;48.116;11.608;2022-08-21T13:39:25;23.50;27.30
11399;DHT22;5755;48.116;11.608;2022-08-21T13:41:55;23.50;27.50
11399;DHT22;5755;48.116;11.608;2022-08-21T13:44:35;23.40;28.40
11399;DHT22;5755;48.116;11.608;2022-08-21T13:47:04;23.40;29.00
11399;DHT22;5755;48.116;11.608;2022-08-21T13:49:34;23.40;29.40
11399;DHT22;5755;48.116;11.608;2022-08-21T13:52:02;23.50;28.30
11399;DHT22;5755;48.116;11.608;2022-08-21T13:54:34;23.90;27.20
11399;DHT22;5755;48.116;11.608;2022-08-21T13:57:02;24.10;26.50
11399;DHT22;5755;48.116;11.608;2022-08-21T13:59:34;24.00;26.40
11399;DHT22;5755;48.116;11.608;2022-08-21T14:02:10;23.80;26.70
11399;DHT22;5755;48.116;11.608;2022-08-21T14:04:43;23.60;28.20
11399;DHT22;5755;48.116;11.608;2022-08-21T14:07:20;23.30;28.70
11399;DHT22;5755;48.116;11.608;2022-08-21T14:09:51;23.30;29.10
11399;DHT22;5755;48.116;11.608;2022-08-21T14:12:25;23.40;29.60
11399;DHT22;5755;48.116;11.608;2022-08-21T14:14:55;23.70;29.00
11399;DHT22;5755;48.116;11.608;2022-08-21T14:17:28;23.90;28.70
11399;DHT22;5755;48.116;11.608;2022-08-21T14:19:54;23.90;28.00
11399;DHT22;5755;48.116;11.608;2022-08-21T14:22:38;23.90;28.10
11399;DHT22;5755;48.116;11.608;2022-08-21T14:25:07;23.90;26.70
11399;DHT22;5755;48.116;11.608;2022-08-21T14:27:40;24.00;28.50
11399;DHT22;5755;48.116;11.608;2022-08-21T14:30:16;24.20;27.10
11399;DHT22;5755;48.116;11.608;2022-08-21T14:32:43;24.50;26.70
11399;DHT22;5755;48.116;11.608;2022-08-21T14:35:11;24.80;25.30
11399;DHT22;5755;48.116;11.608;2022-08-21T14:37:41;25.00;23.50
11399;DHT22;5755;48.116;11.608;2022-08-21T14:40:12;24.90;23.40
11399;DHT22;5755;48.116;11.608;2022-08-21T14:42:42;24.60;25.30
11399;DHT22;5755;48.116;11.608;2022-08-21T14:45:16;24.40;24.00
11399;DHT22;5755;48.116;11.608;2022-08-21T14:47:44;24.30;22.10
11399;DHT22;5755;48.116;11.608;2022-08-21T14:50:12;24.20;23.10
11399;DHT22;5755;48.116;11.608;2022-08-21T14:52:40;24.00;24.90
11399;DHT22;5755;48.116;11.608;2022-08-21T14:55:09;23.80;24.70
11399;DHT22;5755;48.116;11.608;2022-08-21T14:57:39;23.60;25.20
11399;DHT22;5755;48.116;11.608;2022-08-21T15:00:08;23.50;25.80
11399;DHT22;5755;48.116;11.608;2022-08-21T15:02:37;23.60;24.30
11399;DHT22;5755;48.116;11.608;2022-08-21T15:05:05;23.70;24.50
11399;DHT22;5755;48.116;11.608;2022-08-21T15:07:32;23.60;23.60
11399;DHT22;5755;48.116;11.608;2022-08-21T15:09:59;23.60;25.80
11399;DHT22;5755;48.116;11.608;2022-08-21T15:12:26;23.50;24.20
11399;DHT22;5755;48.116;11.608;2022-08-21T15:15:03;23.50;25.40
11399;DHT22;5755;48.116;11.608;2022-08-21T15:17:30;23.40;27.60
11399;DHT22;5755;48.116;11.608;2022-08-21T15:20:02;23.30;28.10
11399;DHT22;5755;48.116;11.608;2022-08-21T15:22:30;23.30;26.70
11399;DHT22;5755;48.116;11.608;2022-08-21T15:24:57;23.50;24.80
11399;DHT22;5755;48.116;11.608;2022-08-21T15:27:24;23.60;26.30
11399;DHT22;5755;48.116;11.608;2022-08-21T15:29:51;23.60;26.60
11399;DHT22;5755;48.116;11.608;2022-08-21T15:32:22;23.40;27.80
11399;DHT22;5755;48.116;11.608;2022-08-21T15:35:08;23.40;26.80
11399;DHT22;5755;48.116;11.608;2022-08-21T15:37:38;23.40;26.90
11399;DHT22;5755;48.116;11.608;2022-08-21T15:40:24;23.50;23.70
11399;DHT22;5755;48.116;11.608;2022-08-21T15:42:53;23.60;23.30
11399;DHT22;5755;48.116;11.608;2022-08-21T15:45:22;23.70;23.30
11399;DHT22;5755;48.116;11.608;2022-08-21T15:47:50;23.70;23.20
11399;DHT22;5755;48.116;11.608;2022-08-21T15:50:19;23.70;23.40
11399;DHT22;5755;48.116;11.608;2022-08-21T15:52:46;23.70;23.40
11399;DHT22;5755;48.116;11.608;2022-08-21T15:55:14;23.70;23.90
11399;DHT22;5755;48.116;11.608;2022-08-21T15:57:44;23.80;24.60